Time;durP1;ratioP1;P1;durP2;ratioP2;P2;SDS_P1;SDS_P2;PMS_P1;PMS_P2;Temp;Humidity;BMP_temperature;BMP_pressure;BME280_temperature;BME280_humidity;BME280_pressure;Samples;Min_cycle;Max_cycle;Signal;HPM_P1;HPM_P2
2023/04/06 05:18:26;;;;;;;;;;;;;;;7.65;46.89;97117.44;4228681;27;10473;-71
2023/04/06 05:20:29;;;;;;;;;;;;;;;7.94;46.63;97122.16;4230490;28;5699;-71
2023/04/06 05:22:32;;;;;;;;;;;;;;;8.15;46.25;97115.34;4228238;28;5751;-70
2023/04/06 05:24:36;;;;;;;;;;;;;;;8.35;45.96;97130.78;4221985;28;5781;-70
2023/04/06 05:26:39;;;;;;;;;;;;;;;8.48;45.94;97120.50;4223866;28;6854;-71
2023/04/06 05:28:44;;;;;;;;;;;;;;;8.56;45.86;97120.47;4224735;28;5831;-71
2023/04/06 05:30:47;;;;;;;;;;;;;;;8.64;45.68;97123.06;4231558;28;5862;-71
2023/04/06 05:32:50;;;;;;;;;;;;;;;8.71;45.74;97116.09;4221489;28;5620;-71
2023/04/06 05:34:54;;;;;;;;;;;;;;;8.80;45.56;97116.88;4231521;28;5657;-71
2023/04/06 05:36:57;;;;;;;;;;;;;;;8.88;45.53;97118.66;4231248;28;5666;-71
2023/04/06 05:39:00;;;;;;;;;;;;;;;8.92;45.46;97122.56;4231274;28;5685;-72
2023/04/06 05:41:03;;;;;;;;;;;;;;;8.97;45.46;97117.63;4231643;28;5702;-71
2023/04/06 05:43:05;;;;;;;;;;;;;;;9.01;45.20;97114.44;4231229;28;5693;-71
2023/04/06 05:45:10;;;;;;;;;;;;;;;9.06;45.37;97113.94;4231715;28;5665;-71
2023/04/06 05:47:13;;;;;;;;;;;;;;;9.07;45.34;97117.38;4214303;28;5620;-71
2023/04/06 05:49:17;;;;;;;;;;;;;;;9.07;45.52;97123.47;4214627;28;5705;-71
2023/04/06 05:51:21;;;;;;;;;;;;;;;9.08;45.24;97124.31;4214871;28;5682;-71
2023/04/06 05:53:26;;;;;;;;;;;;;;;9.10;45.39;97127.56;4223003;28;5684;-71
2023/04/06 05:55:28;;;;;;;;;;;;;;;9.11;45.42;97119.50;4231378;28;5669;-71
2023/04/06 05:57:31;;;;;;;;;;;;;;;9.14;45.38;97131.50;4231091;28;5693;-71
2023/04/06 05:59:34;;;;;;;;;;;;;;;9.16;45.11;97127.69;4231261;28;5772;-71
2023/04/06 06:01:37;;;;;;;;;;;;;;;9.19;45.39;97126.53;4231022;28;5677;-71
2023/04/06 06:03:40;;;;;;;;;;;;;;;9.24;45.06;97130.25;4231404;28;5692;-71
2023/04/06 06:05:43;;;;;;;;;;;;;;;9.27;45.24;97140.47;4231130;28;5752;-71
2023/04/06 06:07:47;;;;;;;;;;;;;;;9.30;45.09;97128.75;4230727;28;5101;-71
2023/04/06 06:09:50;;;;;;;;;;;;;;;9.29;45.25;97132.41;4231108;28;5764;-71
2023/04/06 06:11:53;;;;;;;;;;;;;;;9.30;45.20;97132.22;4230785;28;5674;-70
2023/04/06 06:13:56;;;;;;;;;;;;;;;9.33;45.00;97137.13;4230919;28;5720;-72
2023/04/06 06:15:59;;;;;;;;;;;;;;;9.39;45.13;97137.41;4230753;28;5669;-71
2023/04/06 06:18:02;;;;;;;;;;;;;;;9.38;45.07;97138.41;4227084;28;6777;-71
2023/04/06 06:20:06;;;;;;;;;;;;;;;9.37;45.02;97134.13;4219565;28;5772;-71
2023/04/06 06:22:09;;;;;;;;;;;;;;;9.37;44.98;97139.41;4219533;28;5673;-71
2023/04/06 06:24:13;;;;;;;;;;;;;;;9.39;44.93;97140.88;4219310;28;5805;-71
2023/04/06 06:26:16;;;;;;;;;;;;;;;9.46;44.75;97143.63;4219661;28;5748;-71
2023/04/06 06:28:19;;;;;;;;;;;;;;;9.50;44.86;97136.97;4219735;28;5658;-71
2023/04/06 06:30:22;;;;;;;;;;;;;;;9.50;44.90;97140.44;4219805;28;5740;-71
2023/04/06 06:32:26;;;;;;;;;;;;;;;9.52;44.80;97143.75;4219427;28;5665;-71
2023/04/06 06:34:29;;;;;;;;;;;;;;;9.55;44.76;97137.28;4219469;28;6351;-72
2023/04/06 06:36:32;;;;;;;;;;;;;;;9.58;44.61;97142.19;4219348;28;6365;-72
2023/04/06 06:38:34;;;;;;;;;;;;;;;9.65;44.54;97148.41;4219083;28;5755;-71
2023/04/06 06:40:39;;;;;;;;;;;;;;;9.70;44.39;97151.34;4219219;28;5662;-71
2023/04/06 06:42:42;;;;;;;;;;;;;;;9.73;44.29;97161.53;4219371;28;5899;-71
2023/04/06 06:44:45;;;;;;;;;;;;;;;9.76;44.65;97155.91;4219275;28;6378;-71
2023/04/06 06:46:48;;;;;;;;;;;;;;;9.83;44.34;97156.81;4218985;28;5666;-70
2023/04/06 06:48:51;;;;;;;;;;;;;;;9.85;44.54;97154.00;4218911;28;5682;-70
2023/04/06 06:50:54;;;;;;;;;;;;;;;9.87;44.40;97158.13;4219062;28;5744;-71
2023/04/06 06:52:56;;;;;;;;;;;;;;;9.95;44.41;97153.75;4218801;28;5689;-70
2023/04/06 06:55:00;;;;;;;;;;;;;;;9.98;44.30;97161.31;4218946;28;5677;-70
2023/04/06 06:57:04;;;;;;;;;;;;;;;9.96;44.47;97152.72;4218919;28;5666;-71
2023/04/06 06:59:07;;;;;;;;;;;;;;;9.93;44.31;97154.75;4218880;28;6386;-71
2023/04/06 07:01:11;;;;;;;;;;;;;;;9.96;44.54;97143.00;4219021;28;6341;-71
2023/04/06 07:03:14;;;;;;;;;;;;;;;10.02;44.40;97152.84;4218793;28;5690;-71
2023/04/06 07:05:17;;;;;;;;;;;;;;;10.09;44.43;97153.78;4218625;28;5672;-71
2023/04/06 07:07:30;;;;;;;;;;;;;;;10.13;44.15;97162.16;4218598;28;5788;-71
2023/04/06 07:09:34;;;;;;;;;;;;;;;10.15;44.29;97160.97;4215811;28;5609;-71
2023/04/06 07:11:36;;;;;;;;;;;;;;;10.17;44.37;97158.13;4203715;28;5697;-71
2023/04/06 07:13:41;;;;;;;;;;;;;;;10.21;44.32;97159.44;4218981;28;5676;-72
2023/04/06 07:15:44;;;;;;;;;;;;;;;10.24;44.18;97167.03;4218742;28;5786;-71
2023/04/06 07:17:47;;;;;;;;;;;;;;;10.28;44.19;97170.94;4218441;28;5736;-71
2023/04/06 07:19:50;;;;;;;;;;;;;;;10.32;44.23;97166.94;4218683;28;5764;-72
2023/04/06 07:21:54;;;;;;;;;;;;;;;10.37;44.19;97164.56;4218597;28;5661;-72
2023/04/06 07:23:56;;;;;;;;;;;;;;;10.39;44.02;97157.25;4218533;28;5756;-71
2023/04/06 07:25:59;;;;;;;;;;;;;;;10.41;44.13;97170.28;4218423;28;5669;-71
2023/04/06 07:28:03;;;;;;;;;;;;;;;10.39;44.27;97167.81;4218271;28;5752;-71
2023/04/06 07:30:09;;;;;;;;;;;;;;;10.41;44.47;97165.81;4217398;28;5669;-72
2023/04/06 07:32:12;;;;;;;;;;;;;;;10.43;44.25;97169.13;4218806;28;5733;-72
2023/04/06 07:34:15;;;;;;;;;;;;;;;10.44;44.26;97169.94;4218364;28;5697;-72
2023/04/06 07:36:18;;;;;;;;;;;;;;;10.42;44.47;97167.50;4218378;28;5692;-72
2023/04/06 07:38:21;;;;;;;;;;;;;;;10.40;44.19;97166.00;4218248;28;5681;-72
2023/04/06 07:40:25;;;;;;;;;;;;;;;10.41;44.36;97171.09;4218581;28;5658;-71
2023/04/06 07:42:28;;;;;;;;;;;;;;;10.38;44.30;97168.00;4218005;28;5669;-72
2023/04/06 07:44:31;;;;;;;;;;;;;;;10.43;44.33;97169.13;4217966;28;5673;-71
2023/04/06 07:46:36;;;;;;;;;;;;;;;10.47;44.12;97169.56;4218377;28;5665;-71
2023/04/06 07:48:39;;;;;;;;;;;;;;;10.49;43.96;97176.31;4218351;28;5670;-72
2023/04/06 07:50:42;;;;;;;;;;;;;;;10.53;44.28;97173.28;4218450;28;6367;-72
2023/04/06 07:52:45;;;;;;;;;;;;;;;10.56;44.33;97165.00;4217922;28;5775;-71
2023/04/06 07:54:49;;;;;;;;;;;;;;;10.57;43.99;97175.41;4217443;28;5685;-72
2023/04/06 07:56:52;;;;;;;;;;;;;;;10.58;44.21;97176.22;4218258;28;5681;-72
2023/04/06 07:58:56;;;;;;;;;;;;;;;10.61;44.08;97187.25;4218098;28;5661;-71
2023/04/06 08:00:59;;;;;;;;;;;;;;;10.61;44.17;97181.94;4217898;28;5688;-72
2023/04/06 08:03:04;;;;;;;;;;;;;;;10.65;43.92;97177.13;4218094;28;5709;-72
2023/04/06 08:05:07;;;;;;;;;;;;;;;10.68;43.94;97172.28;4217968;28;5714;-72
2023/04/06 08:07:12;;;;;;;;;;;;;;;10.71;44.24;97174.56;4217679;28;5743;-72
2023/04/06 08:09:17;;;;;;;;;;;;;;;10.74;43.89;97176.00;4217880;28;5874;-72
2023/04/06 08:11:21;;;;;;;;;;;;;;;10.74;44.21;97170.72;4217852;28;5670;-71
2023/04/06 08:13:24;;;;;;;;;;;;;;;10.75;44.11;97173.16;4217816;28;5672;-72
2023/04/06 08:15:27;;;;;;;;;;;;;;;10.81;43.96;97176.09;4217926;28;5685;-71
2023/04/06 08:17:30;;;;;;;;;;;;;;;10.81;44.16;97174.28;4217424;28;5666;-71
2023/04/06 08:19:35;;;;;;;;;;;;;;;10.81;43.79;97176.91;4217679;28;5678;-72
2023/04/06 08:21:39;;;;;;;;;;;;;;;10.81;44.00;97171.63;4217518;28;5669;-71
2023/04/06 08:23:42;;;;;;;;;;;;;;;10.80;44.02;97170.00;4217529;28;5677;-72
2023/04/06 08:25:45;;;;;;;;;;;;;;;10.80;44.21;97180.56;4217633;28;5680;-72
2023/04/06 08:27:50;;;;;;;;;;;;;;;10.82;44.12;97175.91;4217880;28;5788;-71
2023/04/06 08:29:53;;;;;;;;;;;;;;;10.80;44.24;97172.63;4217758;28;5665;-72
2023/04/06 08:31:57;;;;;;;;;;;;;;;10.79;44.04;97176.28;4217598;28;5668;-72
2023/04/06 08:34:00;;;;;;;;;;;;;;;10.80;44.18;97172.63;4217629;28;5779;-72
2023/04/06 08:36:13;;;;;;;;;;;;;;;10.83;43.97;97172.25;4217746;28;5672;-71
2023/04/06 08:38:16;;;;;;;;;;;;;;;10.87;44.04;97173.50;4217251;28;5666;-70
2023/04/06 08:40:19;;;;;;;;;;;;;;;10.93;43.86;97166.69;4217580;28;5776;-70
2023/04/06 08:42:26;;;;;;;;;;;;;;;10.95;43.92;97165.47;4200484;28;5884;-71
2023/04/06 08:44:29;;;;;;;;;;;;;;;10.97;43.79;97165.28;4217596;28;5670;-71
2023/04/06 08:46:32;;;;;;;;;;;;;;;10.94;44.23;97158.56;4217327;28;5665;-71
2023/04/06 08:48:37;;;;;;;;;;;;;;;10.96;44.07;97164.47;4217066;28;5745;-70
2023/04/06 08:50:40;;;;;;;;;;;;;;;11.00;44.17;97164.94;4217405;28;5795;-71
2023/04/06 08:52:47;;;;;;;;;;;;;;;11.04;43.79;97161.72;4217156;28;5664;-70
2023/04/06 08:54:50;;;;;;;;;;;;;;;11.07;43.86;97165.81;4217397;28;5767;-71
2023/04/06 08:56:56;;;;;;;;;;;;;;;11.10;43.83;97160.16;4217319;28;5744;-71
2023/04/06 08:58:59;;;;;;;;;;;;;;;11.13;43.87;97166.91;4217543;28;5690;-71
2023/04/06 09:01:06;;;;;;;;;;;;;;;11.15;44.04;97172.81;4217390;28;5821;-71
2023/04/06 09:03:12;;;;;;;;;;;;;;;11.16;44.18;97166.53;4217050;28;5933;-71
2023/04/06 09:05:17;;;;;;;;;;;;;;;11.18;44.01;97173.25;4199951;28;7723;-71
2023/04/06 09:07:19;;;;;;;;;;;;;;;11.18;44.12;97164.50;4200051;28;5789;-71
2023/04/06 09:09:24;;;;;;;;;;;;;;;11.18;44.00;97175.09;4198813;28;5647;-72
2023/04/06 09:11:27;;;;;;;;;;;;;;;11.16;43.94;97163.88;4200621;28;5694;-71
2023/04/06 09:13:31;;;;;;;;;;;;;;;11.19;44.03;97172.25;4209827;28;5665;-71
2023/04/06 09:15:34;;;;;;;;;;;;;;;11.17;43.86;97173.44;4216475;28;5787;-71
2023/04/06 09:17:39;;;;;;;;;;;;;;;11.22;44.12;97171.91;4216739;28;5681;-72
2023/04/06 09:19:47;;;;;;;;;;;;;;;11.25;44.08;97170.69;4217011;28;5763;-72
2023/04/06 09:21:50;;;;;;;;;;;;;;;11.29;44.07;97169.31;4217197;28;5685;-71
2023/04/06 09:24:00;;;;;;;;;;;;;;;11.28;44.02;97168.47;4216717;28;5681;-71
2023/04/06 09:26:12;;;;;;;;;;;;;;;11.28;43.85;97167.66;4217384;28;5681;-72
2023/04/06 09:28:15;;;;;;;;;;;;;;;11.26;43.85;97162.56;4217014;28;5852;-71
2023/04/06 09:30:18;;;;;;;;;;;;;;;11.26;44.22;97164.41;4217022;28;5657;-71
2023/04/06 09:32:23;;;;;;;;;;;;;;;11.27;43.87;97160.75;4200469;28;5697;-71
2023/04/06 09:34:26;;;;;;;;;;;;;;;11.25;44.06;97168.06;4216975;28;5744;-71
2023/04/06 09:36:32;;;;;;;;;;;;;;;11.24;43.90;97167.22;4216977;28;5760;-71
2023/04/06 09:38:35;;;;;;;;;;;;;;;11.28;43.94;97162.38;4216440;28;5813;-71
2023/04/06 09:40:49;;;;;;;;;;;;;;;11.25;44.19;97160.09;4216791;28;5653;-71
2023/04/06 09:43:06;;;;;;;;;;;;;;;11.25;44.07;97158.28;4217060;28;5661;-72
2023/04/06 09:45:11;;;;;;;;;;;;;;;11.25;44.10;97157.47;4216647;28;6370;-71
2023/04/06 09:47:16;;;;;;;;;;;;;;;11.26;43.80;97161.75;4216804;28;5701;-71
2023/04/06 09:49:20;;;;;;;;;;;;;;;11.28;44.21;97163.19;4216855;28;5669;-71
2023/04/06 09:51:25;;;;;;;;;;;;;;;11.30;44.08;97166.47;4216823;28;5678;-72
2023/04/06 09:53:32;;;;;;;;;;;;;;;11.33;43.96;97160.00;4217904;28;5146;-71
2023/04/06 09:55:38;;;;;;;;;;;;;;;11.34;43.91;97161.63;4219993;28;5676;-72
2023/04/06 09:57:51;;;;;;;;;;;;;;;11.34;44.07;97161.63;4219927;28;5883;-71
2023/04/06 10:00:03;;;;;;;;;;;;;;;11.37;44.23;97164.72;4220267;28;5673;-72
2023/04/06 10:02:09;;;;;;;;;;;;;;;11.41;43.71;97162.50;4219972;28;5737;-71
2023/04/06 10:04:26;;;;;;;;;;;;;;;11.42;43.65;97164.13;4220036;28;5674;-72
2023/04/06 10:06:35;;;;;;;;;;;;;;;11.42;43.54;97160.66;4219476;28;6358;-71
2023/04/06 10:08:41;;;;;;;;;;;;;;;11.44;43.55;97159.50;4219702;28;5830;-71
2023/04/06 10:10:44;;;;;;;;;;;;;;;11.46;43.70;97154.00;4218685;28;5613;-71
2023/04/06 10:12:48;;;;;;;;;;;;;;;11.47;43.69;97156.47;4219704;28;5673;-71
2023/04/06 10:14:51;;;;;;;;;;;;;;;11.48;43.50;97152.81;4219800;28;5676;-72
2023/04/06 10:16:56;;;;;;;;;;;;;;;11.48;43.66;97157.28;4219392;28;5756;-71
2023/04/06 10:19:06;;;;;;;;;;;;;;;11.50;43.19;97155.25;4219831;28;5680;-72
2023/04/06 10:21:12;;;;;;;;;;;;;;;11.49;43.41;97154.44;4219952;28;5685;-70
2023/04/06 10:23:20;;;;;;;;;;;;;;;11.50;43.49;97145.47;4219273;28;5709;-71
2023/04/06 10:25:29;;;;;;;;;;;;;;;11.58;43.40;97149.84;4219736;28;5704;-72
2023/04/06 10:27:33;;;;;;;;;;;;;;;11.63;43.09;97155.38;4219389;28;5685;-70
2023/04/06 10:29:46;;;;;;;;;;;;;;;11.69;43.12;97148.50;4219493;28;5736;-71
2023/04/06 10:31:50;;;;;;;;;;;;;;;11.75;43.17;97156.47;4219537;28;6455;-70
2023/04/06 10:33:58;;;;;;;;;;;;;;;11.81;42.66;97152.28;4219557;28;5661;-71
2023/04/06 10:36:11;;;;;;;;;;;;;;;11.83;42.97;97156.38;4219466;28;5799;-72
2023/04/06 10:38:14;;;;;;;;;;;;;;;11.89;42.69;97162.72;4219122;28;5658;-70
2023/04/06 10:40:25;;;;;;;;;;;;;;;11.91;42.86;97160.72;4219360;28;5729;-72
2023/04/06 10:42:37;;;;;;;;;;;;;;;11.95;42.78;97154.03;4202696;28;5701;-72
2023/04/06 10:44:44;;;;;;;;;;;;;;;11.97;42.33;97152.00;4213632;28;5764;-72
2023/04/06 10:46:54;;;;;;;;;;;;;;;12.03;42.45;97147.78;4219586;28;5668;-72
2023/04/06 10:49:00;;;;;;;;;;;;;;;12.06;42.39;97150.84;4219152;28;5745;-72
2023/04/06 10:51:08;;;;;;;;;;;;;;;12.12;42.38;97154.56;4219359;28;5685;-72
2023/04/06 10:53:11;;;;;;;;;;;;;;;12.16;42.53;97151.31;4218940;28;5917;-72
2023/04/06 10:55:15;;;;;;;;;;;;;;;12.19;42.11;97156.22;4219032;28;7690;-72
2023/04/06 10:57:29;;;;;;;;;;;;;;;12.22;42.09;97150.53;4219135;28;5706;-72
2023/04/06 10:59:32;;;;;;;;;;;;;;;12.26;42.21;97152.81;4219015;28;5681;-71
2023/04/06 11:01:35;;;;;;;;;;;;;;;12.27;42.16;97149.16;4218985;28;5681;-71
2023/04/06 11:03:44;;;;;;;;;;;;;;;12.28;41.86;97148.94;4218939;28;5673;-71
2023/04/06 11:05:51;;;;;;;;;;;;;;;12.32;41.61;97150.19;4218818;28;5681;-70
2023/04/06 11:07:54;;;;;;;;;;;;;;;12.32;41.61;97138.75;4218724;28;6411;-70
2023/04/06 11:09:57;;;;;;;;;;;;;;;12.33;41.52;97140.41;4218797;28;5673;-70
2023/04/06 11:12:22;;;;;;;;;;;;;;;12.37;41.72;97139.00;4218861;28;5677;-71
2023/04/06 11:14:26;;;;;;;;;;;;;;;12.39;41.62;97136.97;4219105;28;5772;-71
2023/04/06 11:16:31;;;;;;;;;;;;;;;12.40;41.54;97146.56;4218609;28;5668;-71
2023/04/06 11:18:34;;;;;;;;;;;;;;;12.42;41.42;97140.03;4218653;28;5799;-72
2023/04/06 11:20:37;;;;;;;;;;;;;;;12.44;41.38;97134.53;4218710;28;5685;-72
2023/04/06 11:22:53;;;;;;;;;;;;;;;12.43;41.34;97133.72;4218772;28;5670;-71
2023/04/06 11:25:05;;;;;;;;;;;;;;;12.44;40.87;97132.72;4218678;28;5788;-72
2023/04/06 11:27:09;;;;;;;;;;;;;;;12.47;40.88;97123.56;4218723;28;5665;-71
2023/04/06 11:29:14;;;;;;;;;;;;;;;12.48;40.63;97122.56;4218413;28;5677;-72
2023/04/06 11:31:17;;;;;;;;;;;;;;;12.53;40.34;97126.22;4218413;28;5669;-72
2023/04/06 11:33:23;;;;;;;;;;;;;;;12.56;40.17;97126.84;4218428;28;5673;-71
2023/04/06 11:35:26;;;;;;;;;;;;;;;12.56;40.19;97125.00;4218374;28;5690;-71
2023/04/06 11:37:29;;;;;;;;;;;;;;;12.60;40.33;97128.94;4218175;28;5677;-72
2023/04/06 11:39:33;;;;;;;;;;;;;;;12.64;39.91;97132.00;4215275;28;5700;-71
2023/04/06 11:41:37;;;;;;;;;;;;;;;12.63;40.03;97119.75;4203602;28;5785;-71
2023/04/06 11:43:48;;;;;;;;;;;;;;;12.64;39.88;97118.72;4218263;28;5681;-71
2023/04/06 11:45:50;;;;;;;;;;;;;;;12.67;39.37;97110.38;4218651;28;5689;-71
2023/04/06 11:47:59;;;;;;;;;;;;;;;12.72;39.40;97111.41;4218130;28;6461;-71
2023/04/06 11:50:07;;;;;;;;;;;;;;;12.77;39.12;97116.13;4218211;28;5790;-71
2023/04/06 11:52:18;;;;;;;;;;;;;;;12.82;38.90;97108.41;4218626;28;5673;-71
2023/04/06 11:54:31;;;;;;;;;;;;;;;12.86;38.91;97108.81;4218121;28;5668;-71
2023/04/06 11:56:35;;;;;;;;;;;;;;;12.89;38.69;97103.09;4211582;28;5669;-71
2023/04/06 11:58:38;;;;;;;;;;;;;;;12.93;38.57;97099.84;4218030;28;5769;-71
2023/04/06 12:00:44;;;;;;;;;;;;;;;12.93;38.65;97101.69;4217731;28;5768;-71
2023/04/06 12:02:50;;;;;;;;;;;;;;;12.92;38.65;97100.88;4218025;28;5681;-71
2023/04/06 12:04:53;;;;;;;;;;;;;;;12.93;38.49;97102.50;4217766;28;5658;-71
2023/04/06 12:06:56;;;;;;;;;;;;;;;12.95;38.17;97107.63;4217518;28;5823;-71
2023/04/06 12:08:59;;;;;;;;;;;;;;;12.96;38.41;97103.94;4217656;28;5802;-71
2023/04/06 12:11:02;;;;;;;;;;;;;;;12.99;38.43;97093.75;4217589;28;5669;-71
2023/04/06 12:13:07;;;;;;;;;;;;;;;13.00;37.98;97095.38;4217677;28;5657;-71
2023/04/06 12:15:10;;;;;;;;;;;;;;;13.02;38.00;97095.16;4217794;28;5112;-71
2023/04/06 12:17:13;;;;;;;;;;;;;;;13.04;38.07;97095.81;4217030;28;5661;-71
2023/04/06 12:19:16;;;;;;;;;;;;;;;13.04;37.88;97090.50;4217890;28;5689;-71
2023/04/06 12:21:22;;;;;;;;;;;;;;;13.02;37.71;97096.00;4217939;28;5677;-71
2023/04/06 12:23:27;;;;;;;;;;;;;;;13.04;37.49;97091.31;4217633;28;6387;-71
2023/04/06 12:25:30;;;;;;;;;;;;;;;13.05;37.29;97089.47;4217906;28;5745;-71
2023/04/06 12:27:34;;;;;;;;;;;;;;;13.06;37.30;97085.81;4217595;28;5797;-71
2023/04/06 12:29:39;;;;;;;;;;;;;;;13.06;37.39;97078.66;4217589;28;6611;-71
2023/04/06 12:31:44;;;;;;;;;;;;;;;13.11;37.22;97091.31;4217506;28;5697;-71
2023/04/06 12:33:50;;;;;;;;;;;;;;;13.11;37.01;97086.00;4217453;28;5661;-71
2023/04/06 12:35:54;;;;;;;;;;;;;;;13.11;36.92;97092.13;4217572;28;5677;-72
2023/04/06 12:37:57;;;;;;;;;;;;;;;13.11;36.82;97088.66;4217484;28;5794;-72
2023/04/06 12:40:00;;;;;;;;;;;;;;;13.12;36.54;97088.44;4217366;28;5723;-72
2023/04/06 12:42:04;;;;;;;;;;;;;;;13.12;36.65;97072.53;4217510;28;5662;-72
2023/04/06 12:44:07;;;;;;;;;;;;;;;13.18;36.53;97084.19;4217418;28;5755;-72
2023/04/06 12:46:12;;;;;;;;;;;;;;;13.17;36.49;97079.91;4217553;28;5685;-72
2023/04/06 12:48:15;;;;;;;;;;;;;;;13.19;36.14;97083.19;4217338;28;5708;-72
2023/04/06 12:50:18;;;;;;;;;;;;;;;13.20;36.15;97084.81;4217349;28;5823;-71
2023/04/06 12:52:21;;;;;;;;;;;;;;;13.23;36.05;97083.59;4217178;28;5669;-71
2023/04/06 12:54:26;;;;;;;;;;;;;;;13.22;36.24;97080.13;4200538;28;5703;-72
2023/04/06 12:56:29;;;;;;;;;;;;;;;13.22;35.83;97077.47;4217237;28;5756;-72
2023/04/06 12:58:33;;;;;;;;;;;;;;;13.28;35.60;97081.16;4217144;28;5712;-72
2023/04/06 13:00:36;;;;;;;;;;;;;;;13.32;35.82;97077.06;4217343;28;5752;-72
2023/04/06 13:02:46;;;;;;;;;;;;;;;13.35;35.43;97080.13;4217386;28;6828;-71
2023/04/06 13:04:50;;;;;;;;;;;;;;;13.39;35.48;97073.41;4217274;28;5669;-71
2023/04/06 13:06:52;;;;;;;;;;;;;;;13.42;35.49;97068.72;4217020;28;5658;-71
2023/04/06 13:08:56;;;;;;;;;;;;;;;13.40;35.59;97074.22;4216993;28;5673;-71
2023/04/06 13:10:59;;;;;;;;;;;;;;;13.37;35.27;97072.81;4216996;28;5673;-71
2023/04/06 13:13:02;;;;;;;;;;;;;;;13.37;35.21;97061.38;4217204;28;5818;-71
2023/04/06 13:15:06;;;;;;;;;;;;;;;13.35;35.11;97069.50;4217023;28;5666;-72
2023/04/06 13:17:09;;;;;;;;;;;;;;;13.33;35.23;97063.59;4216855;28;5673;-71
2023/04/06 13:19:14;;;;;;;;;;;;;;;13.33;34.75;97055.63;4217185;28;5677;-71
2023/04/06 13:21:19;;;;;;;;;;;;;;;13.35;34.73;97056.22;4217069;28;6430;-72
2023/04/06 13:23:22;;;;;;;;;;;;;;;13.37;34.75;97048.91;4204986;28;5665;-71
2023/04/06 13:25:28;;;;;;;;;;;;;;;13.38;34.81;97049.72;4212714;28;5685;-71
2023/04/06 13:27:33;;;;;;;;;;;;;;;13.40;34.59;97040.53;4216542;28;5831;-71
2023/04/06 13:29:37;;;;;;;;;;;;;;;13.39;34.67;97041.53;4218018;28;5693;-71
2023/04/06 13:31:40;;;;;;;;;;;;;;;13.40;34.60;97045.84;4220210;28;5665;-71
2023/04/06 13:33:44;;;;;;;;;;;;;;;13.40;34.05;97045.84;4219627;28;5685;-71
2023/04/06 13:35:48;;;;;;;;;;;;;;;13.41;34.24;97044.00;4217602;28;5669;-71
2023/04/06 13:37:52;;;;;;;;;;;;;;;13.44;34.31;97042.75;4212588;28;5755;-70
2023/04/06 13:39:55;;;;;;;;;;;;;;;13.44;33.91;97045.41;4218613;28;5682;-71
2023/04/06 13:41:58;;;;;;;;;;;;;;;13.42;34.05;97040.31;4214701;28;5677;-71
2023/04/06 13:44:02;;;;;;;;;;;;;;;13.42;33.83;97042.97;4211125;28;5684;-71
2023/04/06 13:46:05;;;;;;;;;;;;;;;13.43;33.55;97035.81;4214558;28;5760;-71
2023/04/06 13:48:08;;;;;;;;;;;;;;;13.44;33.46;97035.59;4207109;28;5702;-71
2023/04/06 13:50:12;;;;;;;;;;;;;;;13.47;33.70;97037.03;4215825;28;5819;-72
2023/04/06 13:52:16;;;;;;;;;;;;;;;13.49;33.28;97042.97;4208028;28;5702;-70
2023/04/06 13:54:19;;;;;;;;;;;;;;;13.52;32.97;97026.63;4210395;28;5976;-71
2023/04/06 13:56:22;;;;;;;;;;;;;;;13.54;33.07;97032.53;4212544;28;7142;-70
2023/04/06 13:58:26;;;;;;;;;;;;;;;13.58;32.96;97025.78;4210337;28;5840;-71
2023/04/06 14:00:29;;;;;;;;;;;;;;;13.63;33.06;97026.00;4205958;28;5844;-71
2023/04/06 14:02:31;;;;;;;;;;;;;;;13.66;32.90;97028.22;4209091;28;5714;-72
2023/04/06 14:04:35;;;;;;;;;;;;;;;13.71;32.96;97028.44;4209227;28;5678;-71
2023/04/06 14:06:38;;;;;;;;;;;;;;;13.78;32.81;97028.41;4214154;28;5763;-71
2023/04/06 14:08:42;;;;;;;;;;;;;;;13.84;32.92;97028.41;4208310;28;5690;-71
2023/04/06 14:10:45;;;;;;;;;;;;;;;13.88;32.93;97024.31;4210281;28;5835;-72
2023/04/06 14:12:48;;;;;;;;;;;;;;;13.89;32.84;97023.28;4206265;28;5148;-72
2023/04/06 14:14:51;;;;;;;;;;;;;;;13.91;32.64;97023.06;4211607;28;5867;-71
2023/04/06 14:16:54;;;;;;;;;;;;;;;13.93;33.00;97019.19;4211595;28;5752;-71
2023/04/06 14:18:58;;;;;;;;;;;;;;;13.95;32.96;97017.16;4214446;28;5645;-71
2023/04/06 14:21:01;;;;;;;;;;;;;;;13.98;33.06;97010.59;4210221;28;5698;-72
2023/04/06 14:23:04;;;;;;;;;;;;;;;13.99;33.04;97014.88;4214036;28;5744;-72
2023/04/06 14:25:10;;;;;;;;;;;;;;;13.97;33.06;97007.13;4204385;28;5693;-71
2023/04/06 14:27:14;;;;;;;;;;;;;;;13.98;32.86;97008.75;4206165;28;5661;-71
2023/04/06 14:29:17;;;;;;;;;;;;;;;14.02;33.07;97005.66;4210157;28;5694;-71
2023/04/06 14:31:20;;;;;;;;;;;;;;;14.00;33.24;97005.88;4218974;28;5681;-71
2023/04/06 14:33:23;;;;;;;;;;;;;;;13.98;33.28;97014.06;4214658;28;5678;-71
2023/04/06 14:35:27;;;;;;;;;;;;;;;13.96;33.27;97002.84;4218717;28;5673;-71
2023/04/06 14:37:31;;;;;;;;;;;;;;;13.97;32.99;97014.28;4215413;28;5665;-71
2023/04/06 14:39:33;;;;;;;;;;;;;;;13.94;33.35;97012.88;4216749;28;5673;-71
2023/04/06 14:41:38;;;;;;;;;;;;;;;13.94;33.37;97010.19;4216356;28;5739;-72
2023/04/06 14:43:41;;;;;;;;;;;;;;;13.93;33.32;97005.91;4209040;28;5123;-72
2023/04/06 14:45:44;;;;;;;;;;;;;;;13.94;33.14;97018.19;4207402;28;6055;-72
2023/04/06 14:47:47;;;;;;;;;;;;;;;13.94;33.58;97012.88;4211773;28;5696;-72
2023/04/06 14:49:53;;;;;;;;;;;;;;;13.96;33.42;97013.47;4211580;28;5767;-73
2023/04/06 14:51:56;;;;;;;;;;;;;;;13.94;33.39;97020.84;4213664;28;5704;-72
2023/04/06 14:54:02;;;;;;;;;;;;;;;13.95;33.74;97016.34;4212929;28;6328;-72
2023/04/06 14:56:06;;;;;;;;;;;;;;;13.96;33.59;97012.66;4211689;28;5843;-72
2023/04/06 14:58:12;;;;;;;;;;;;;;;13.91;33.73;97021.22;4213612;28;5772;-72
2023/04/06 15:00:17;;;;;;;;;;;;;;;13.86;33.80;97009.59;4211708;28;5910;-72
2023/04/06 15:02:20;;;;;;;;;;;;;;;13.83;33.69;97010.84;4207691;28;5906;-72
2023/04/06 15:04:24;;;;;;;;;;;;;;;13.84;33.99;97003.69;4209784;28;5869;-73
2023/04/06 15:06:28;;;;;;;;;;;;;;;13.79;34.10;97009.59;4210178;28;5073;-73
2023/04/06 15:08:31;;;;;;;;;;;;;;;13.79;33.89;97008.78;4213667;28;5677;-72
2023/04/06 15:10:35;;;;;;;;;;;;;;;13.78;34.11;97004.50;4209140;28;5883;-73
2023/04/06 15:12:38;;;;;;;;;;;;;;;13.81;33.97;96996.94;4213999;28;5680;-72
2023/04/06 15:14:43;;;;;;;;;;;;;;;13.82;34.11;97001.25;4212434;28;5836;-72
2023/04/06 15:16:45;;;;;;;;;;;;;;;13.86;33.93;96994.47;4208157;28;5745;-72
2023/04/06 15:18:49;;;;;;;;;;;;;;;13.89;34.08;96995.88;4212779;28;5760;-72
2023/04/06 15:20:53;;;;;;;;;;;;;;;13.90;33.98;97001.00;4209681;28;5664;-73
2023/04/06 15:22:56;;;;;;;;;;;;;;;13.90;33.99;96995.69;4208168;28;5792;-72
2023/04/06 15:24:59;;;;;;;;;;;;;;;13.94;33.84;96996.91;4213336;28;5675;-73
2023/04/06 15:27:02;;;;;;;;;;;;;;;13.93;33.56;97000.59;4208863;28;5805;-72
2023/04/06 15:29:05;;;;;;;;;;;;;;;13.97;33.64;96995.66;4209702;28;6320;-73
2023/04/06 15:31:15;;;;;;;;;;;;;;;13.99;33.45;96999.75;4211584;28;5660;-72
2023/04/06 15:33:35;;;;;;;;;;;;;;;14.02;33.43;97000.34;4209772;28;5756;-72
2023/04/06 15:35:41;;;;;;;;;;;;;;;14.01;33.20;96998.72;4213700;28;5721;-72
2023/04/06 15:37:45;;;;;;;;;;;;;;;13.94;33.43;96988.94;4216478;28;5720;-71
2023/04/06 15:39:48;;;;;;;;;;;;;;;13.85;33.52;96979.56;4216641;28;5789;-72
2023/04/06 15:41:51;;;;;;;;;;;;;;;13.90;33.07;96987.72;4216719;28;5687;-72
2023/04/06 15:43:55;;;;;;;;;;;;;;;13.90;32.83;96990.38;4216498;28;5791;-71
2023/04/06 15:45:58;;;;;;;;;;;;;;;13.89;32.91;96986.06;4216813;28;5685;-73
2023/04/06 15:48:03;;;;;;;;;;;;;;;13.87;33.08;96980.16;4216793;28;5756;-72
2023/04/06 15:50:08;;;;;;;;;;;;;;;13.89;32.67;96978.09;4216450;28;5653;-73
2023/04/06 15:52:11;;;;;;;;;;;;;;;13.90;33.01;96968.28;4215755;28;5783;-72
2023/04/06 15:54:14;;;;;;;;;;;;;;;13.92;32.59;96972.34;4216462;28;5681;-72
2023/04/06 15:56:17;;;;;;;;;;;;;;;13.94;32.57;96969.53;4216617;28;5680;-72
2023/04/06 15:58:21;;;;;;;;;;;;;;;13.95;32.62;96977.28;4216696;28;5661;-72
2023/04/06 16:00:24;;;;;;;;;;;;;;;13.95;32.56;96961.34;4216904;28;5743;-72
2023/04/06 16:02:27;;;;;;;;;;;;;;;14.01;32.52;96974.78;4214827;28;5882;-72
2023/04/06 16:04:32;;;;;;;;;;;;;;;14.01;32.51;96975.59;4216950;28;5759;-72
2023/04/06 16:06:36;;;;;;;;;;;;;;;14.01;32.41;96974.78;4216719;28;5749;-72
2023/04/06 16:08:40;;;;;;;;;;;;;;;14.07;32.12;96976.63;4211138;28;6011;-72
2023/04/06 16:10:43;;;;;;;;;;;;;;;14.08;32.51;96978.25;4212150;28;5676;-72
2023/04/06 16:12:46;;;;;;;;;;;;;;;14.07;32.26;96980.09;4214043;28;5738;-72
2023/04/06 16:14:50;;;;;;;;;;;;;;;14.07;32.65;96979.28;4215494;28;5853;-73